createdAt,value
2018-06-07T00:02:12.598Z,13.00
2018-06-07T00:04:43.808Z,12.90
2018-06-07T00:07:13.246Z,12.70
2018-06-07T00:09:44.920Z,12.60
2018-06-07T00:12:14.300Z,12.60
2018-06-07T00:14:43.923Z,12.60
2018-06-07T00:17:13.598Z,12.60
2018-06-07T00:19:43.707Z,12.60
2018-06-07T00:22:14.872Z,12.50
2018-06-07T00:24:44.357Z,12.40
2018-06-07T00:27:14.118Z,12.50
2018-06-07T00:29:45.328Z,12.50
2018-06-07T00:32:15.519Z,12.40
2018-06-07T00:34:46.942Z,12.40
2018-06-07T00:37:16.845Z,12.40
2018-06-07T00:39:49.529Z,12.30
2018-06-07T00:42:20.750Z,12.30
2018-06-07T00:44:50.827Z,12.30
2018-06-07T00:47:22.823Z,12.50
2018-06-07T00:49:52.581Z,12.40
2018-06-07T00:52:22.162Z,12.50
2018-06-07T00:54:53.344Z,12.50
2018-06-07T00:57:22.614Z,12.50
2018-06-07T00:59:51.953Z,12.50
2018-06-07T01:02:22.152Z,12.40
2018-06-07T01:04:51.811Z,12.40
2018-06-07T01:07:21.195Z,12.40
2018-06-07T01:09:50.753Z,12.40
2018-06-07T01:12:20.305Z,12.40
2018-06-07T01:14:49.568Z,12.20
2018-06-07T01:17:18.878Z,12.20
2018-06-07T01:19:48.254Z,12.10
2018-06-07T01:22:20.008Z,12.00
2018-06-07T01:24:49.468Z,12.00
2018-06-07T01:27:18.777Z,12.00
2018-06-07T01:30:00.548Z,12.00
2018-06-07T01:32:50.430Z,12.00
2018-06-07T01:35:20.076Z,12.00
2018-06-07T01:38:01.225Z,12.10
2018-06-07T01:40:32.807Z,12.00
2018-06-07T01:43:02.142Z,12.10
2018-06-07T01:45:34.106Z,12.10
2018-06-07T01:48:04.452Z,12.20
2018-06-07T01:50:34.069Z,12.20
2018-06-07T01:53:03.344Z,12.20
2018-06-07T01:55:32.606Z,12.10
2018-06-07T01:58:02.033Z,11.90
2018-06-07T02:00:31.386Z,11.90
2018-06-07T02:03:01.752Z,11.90
2018-06-07T02:05:31.088Z,12.00
2018-06-07T02:08:00.437Z,12.00
2018-06-07T02:10:29.720Z,11.90
2018-06-07T02:12:59.066Z,11.90
2018-06-07T02:15:28.336Z,11.80
2018-06-07T02:17:57.568Z,11.80
2018-06-07T02:20:26.871Z,11.80
2018-06-07T02:22:56.119Z,11.80
2018-06-07T02:25:25.449Z,11.90
2018-06-07T02:27:54.756Z,12.00
2018-06-07T02:30:24.057Z,12.00
2018-06-07T02:32:53.320Z,12.00
2018-06-07T02:35:22.654Z,11.90
2018-06-07T02:37:51.981Z,11.70
2018-06-07T02:40:21.203Z,11.60
2018-06-07T02:42:50.539Z,11.50
2018-06-07T02:45:19.774Z,11.50
2018-06-07T02:47:49.064Z,11.50
2018-06-07T02:50:18.348Z,11.40
2018-06-07T02:52:47.645Z,11.50
2018-06-07T02:55:17.001Z,11.40
2018-06-07T02:57:46.293Z,11.40
2018-06-07T03:00:33.027Z,11.40
2018-06-07T03:03:02.330Z,11.50
2018-06-07T03:05:31.811Z,11.50
2018-06-07T03:08:01.131Z,11.50
2018-06-07T03:10:30.497Z,11.50
2018-06-07T03:12:59.826Z,11.70
2018-06-07T03:15:29.075Z,11.80
2018-06-07T03:17:58.361Z,11.80
2018-06-07T03:20:27.686Z,11.80
2018-06-07T03:22:57.098Z,11.80
2018-06-07T03:25:26.485Z,11.70
2018-06-07T03:27:55.823Z,11.60
2018-06-07T03:30:25.240Z,11.60
2018-06-07T03:32:54.607Z,11.60
2018-06-07T03:35:23.985Z,11.50
2018-06-07T03:37:53.263Z,11.60
2018-06-07T03:40:22.700Z,11.70
2018-06-07T03:42:52.068Z,11.70
2018-06-07T03:45:21.370Z,11.80
2018-06-07T03:47:50.624Z,11.80
2018-06-07T03:50:19.919Z,11.70
2018-06-07T03:52:49.224Z,11.70
2018-06-07T03:55:18.511Z,11.70
2018-06-07T03:57:47.882Z,11.70
2018-06-07T04:00:17.303Z,11.80
2018-06-07T04:02:46.645Z,11.80
2018-06-07T04:05:16.040Z,11.80
2018-06-07T04:07:45.299Z,11.90
2018-06-07T04:10:14.593Z,12.00
2018-06-07T04:12:43.880Z,12.10
2018-06-07T04:15:13.197Z,12.20
2018-06-07T04:17:42.561Z,12.30
2018-06-07T04:20:11.926Z,12.40
2018-06-07T04:22:41.279Z,12.40
2018-06-07T04:25:10.653Z,12.30
2018-06-07T04:27:40.089Z,12.40
2018-06-07T04:30:10.566Z,12.40
2018-06-07T04:32:40.001Z,12.50
2018-06-07T04:35:09.398Z,12.50
2018-06-07T04:37:38.694Z,12.70
2018-06-07T04:40:08.002Z,12.80
2018-06-07T04:42:37.383Z,12.90
2018-06-07T04:45:06.661Z,13.00
2018-06-07T04:47:35.959Z,13.00
2018-06-07T04:50:05.276Z,13.10
2018-06-07T04:52:34.564Z,13.10
2018-06-07T04:55:03.989Z,13.20
2018-06-07T04:57:33.267Z,13.30
2018-06-07T05:00:02.668Z,13.50
2018-06-07T05:02:32.075Z,13.60
2018-06-07T05:05:01.330Z,13.70
2018-06-07T05:07:30.812Z,13.90
2018-06-07T05:10:00.125Z,14.00
2018-06-07T05:12:29.609Z,14.10
2018-06-07T05:14:58.953Z,14.20
2018-06-07T05:17:28.323Z,14.30
2018-06-07T05:19:57.739Z,14.40
2018-06-07T05:22:27.033Z,14.50
2018-06-07T05:24:56.441Z,14.70
2018-06-07T05:27:26.028Z,14.90
2018-06-07T05:29:55.306Z,15.10
2018-06-07T05:32:24.609Z,15.30
2018-06-07T05:34:54.060Z,15.60
2018-06-07T05:37:23.441Z,15.70
2018-06-07T05:39:52.821Z,15.90
2018-06-07T05:42:22.160Z,16.00
2018-06-07T05:44:51.618Z,16.10
2018-06-07T05:47:21.185Z,16.30
2018-06-07T05:49:50.585Z,16.40
2018-06-07T05:52:19.902Z,16.50
2018-06-07T05:54:49.226Z,16.70
2018-06-07T05:57:18.529Z,16.90
2018-06-07T05:59:47.832Z,17.00
2018-06-07T06:02:17.254Z,17.20
2018-06-07T06:04:46.626Z,17.30
2018-06-07T06:07:15.963Z,17.40
2018-06-07T06:09:45.431Z,17.60
2018-06-07T06:12:14.704Z,17.70
2018-06-07T06:14:44.833Z,17.90
2018-06-07T06:17:14.242Z,18.10
2018-06-07T06:19:43.632Z,18.20
2018-06-07T06:22:12.943Z,18.40
2018-06-07T06:24:42.439Z,18.60
2018-06-07T06:27:11.832Z,18.80
2018-06-07T06:29:41.361Z,19.00
2018-06-07T06:32:10.794Z,19.20
2018-06-07T06:34:40.199Z,19.40
2018-06-07T06:37:09.490Z,19.70
2018-06-07T06:39:39.113Z,19.90
2018-06-07T06:42:08.401Z,20.10
2018-06-07T06:44:37.749Z,20.40
2018-06-07T06:47:07.153Z,20.60
2018-06-07T06:49:36.442Z,20.80
2018-06-07T06:52:05.862Z,20.90
2018-06-07T06:54:35.252Z,21.10
2018-06-07T06:57:06.570Z,21.20
2018-06-07T06:59:36.069Z,21.30
2018-06-07T07:02:05.379Z,21.40
2018-06-07T07:04:34.853Z,21.40
2018-06-07T07:07:04.136Z,21.50
2018-06-07T07:09:33.554Z,21.80
2018-06-07T07:12:02.881Z,22.00
2018-06-07T07:14:38.915Z,22.20
2018-06-07T07:17:08.417Z,22.50
2018-06-07T07:19:37.820Z,22.80
2018-06-07T07:22:07.438Z,22.90
2018-06-07T07:24:36.731Z,23.00
2018-06-07T07:27:06.151Z,23.20
2018-06-07T07:29:35.576Z,23.40
2018-06-07T07:32:04.997Z,23.80
2018-06-07T07:34:34.357Z,24.50
2018-06-07T07:37:03.683Z,24.90
2018-06-07T07:39:33.089Z,25.30
2018-06-07T07:42:02.590Z,25.60
2018-06-07T07:44:32.236Z,25.80
2018-06-07T07:47:01.542Z,26.20
2018-06-07T07:49:30.934Z,26.40
2018-06-07T07:52:00.487Z,26.20
2018-06-07T07:54:29.912Z,26.00
2018-06-07T07:56:59.320Z,26.40
2018-06-07T07:59:28.897Z,26.90
2018-06-07T08:01:58.267Z,27.30
2018-06-07T08:04:27.593Z,27.40
2018-06-07T08:06:57.095Z,27.20
2018-06-07T08:09:26.588Z,27.30
2018-06-07T08:11:57.256Z,28.10
2018-06-07T08:14:26.711Z,28.60
2018-06-07T08:16:56.443Z,28.50
2018-06-07T08:19:25.861Z,27.90
2018-06-07T08:21:55.247Z,27.40
2018-06-07T08:24:26.352Z,27.20
2018-06-07T08:26:58.927Z,27.20
2018-06-07T08:29:28.392Z,27.30
2018-06-07T08:31:58.205Z,27.20
2018-06-07T08:34:31.184Z,27.50
2018-06-07T08:37:00.513Z,27.10
2018-06-07T08:39:29.985Z,26.80
2018-06-07T08:41:59.266Z,26.70
2018-06-07T08:44:28.597Z,26.40
2018-06-07T08:47:02.232Z,26.30
2018-06-07T08:49:31.994Z,26.50
2018-06-07T08:52:01.315Z,27.00
2018-06-07T08:54:30.904Z,27.40
2018-06-07T08:57:00.509Z,27.90
2018-06-07T08:59:32.728Z,28.00
2018-06-07T09:02:02.308Z,28.20
2018-06-07T09:04:31.913Z,28.20
2018-06-07T09:07:04.434Z,28.30
2018-06-07T09:09:33.912Z,28.30
2018-06-07T09:12:03.514Z,28.40
2018-06-07T09:14:32.856Z,28.20
2018-06-07T09:17:06.205Z,28.00
2018-06-07T09:19:35.893Z,28.00
2018-06-07T09:22:08.109Z,27.80
2018-06-07T09:24:41.037Z,27.90
2018-06-07T09:27:10.350Z,28.30
2018-06-07T09:29:40.146Z,28.10
2018-06-07T09:32:15.676Z,28.30
2018-06-07T09:34:47.464Z,28.30
2018-06-07T09:37:20.144Z,27.90
2018-06-07T09:42:18.862Z,28.00
2018-06-07T09:44:48.405Z,27.80
2018-06-07T09:47:22.168Z,28.00
2018-06-07T09:49:51.463Z,28.00
2018-06-07T09:52:20.874Z,28.00
2018-06-07T09:54:50.388Z,27.90
2018-06-07T09:57:19.909Z,27.90
2018-06-07T09:59:49.497Z,27.90
2018-06-07T10:02:19.647Z,27.80
2018-06-07T10:04:49.199Z,27.70
2018-06-07T10:07:18.768Z,28.00
2018-06-07T10:09:48.195Z,28.10
2018-06-07T10:12:17.876Z,28.10
2018-06-07T10:14:47.452Z,27.90
2018-06-07T10:17:16.874Z,27.90
2018-06-07T10:19:46.167Z,27.60
2018-06-07T10:22:18.896Z,27.50
2018-06-07T10:24:50.214Z,27.70
2018-06-07T10:27:19.787Z,27.70
2018-06-07T10:29:51.529Z,27.20
2018-06-07T10:32:27.427Z,26.70
2018-06-07T10:35:01.978Z,26.70
2018-06-07T10:37:33.085Z,27.10
2018-06-07T10:40:02.563Z,27.20
2018-06-07T10:42:31.987Z,27.50
2018-06-07T10:45:01.579Z,27.50
2018-06-07T10:47:30.962Z,27.40
2018-06-07T10:50:00.347Z,27.50
2018-06-07T10:52:29.673Z,27.20
2018-06-07T10:54:59.270Z,27.30
2018-06-07T10:57:28.833Z,27.30
2018-06-07T10:59:58.238Z,27.30
2018-06-07T11:02:27.527Z,27.50
2018-06-07T11:04:57.972Z,27.30
2018-06-07T11:07:27.573Z,27.20
2018-06-07T11:09:57.115Z,27.30
2018-06-07T11:12:26.466Z,27.30
2018-06-07T11:14:56.005Z,27.40
2018-06-07T11:17:25.506Z,27.50
2018-06-07T11:19:55.121Z,27.40
2018-06-07T11:22:24.497Z,27.50
2018-06-07T11:24:53.896Z,27.40
2018-06-07T11:27:23.838Z,27.40
2018-06-07T11:29:53.280Z,27.30
2018-06-07T11:32:22.822Z,27.30
2018-06-07T11:34:52.381Z,27.20
2018-06-07T11:37:21.807Z,27.20
2018-06-07T11:39:51.191Z,27.10
2018-06-07T11:42:20.596Z,27.40
2018-06-07T11:44:50.057Z,27.40
2018-06-07T11:47:19.546Z,27.50
2018-06-07T11:49:48.868Z,27.70
2018-06-07T11:52:18.506Z,27.70
2018-06-07T11:54:48.052Z,28.00
2018-06-07T11:57:17.502Z,27.60
2018-06-07T11:59:48.019Z,27.70
2018-06-07T12:02:17.513Z,28.20
2018-06-07T12:04:47.179Z,28.20
2018-06-07T12:07:16.479Z,28.20
2018-06-07T12:09:45.946Z,28.50
2018-06-07T12:12:15.348Z,28.30
2018-06-07T12:14:48.834Z,27.70
2018-06-07T12:17:18.960Z,27.70
2018-06-07T12:19:48.662Z,27.50
2018-06-07T12:22:18.820Z,27.70
2018-06-07T12:24:49.164Z,27.60
2018-06-07T12:27:18.952Z,27.50
2018-06-07T12:29:48.586Z,27.20
2018-06-07T12:32:18.302Z,27.20
2018-06-07T12:34:48.345Z,27.20
2018-06-07T12:37:17.814Z,27.30
2018-06-07T12:39:47.234Z,27.30
2018-06-07T12:42:16.814Z,27.50
2018-06-07T12:44:46.195Z,27.90
2018-06-07T12:47:15.525Z,28.40
2018-06-07T12:49:45.167Z,28.70
2018-06-07T12:52:14.594Z,29.10
2018-06-07T12:54:44.139Z,29.30
2018-06-07T12:57:14.467Z,29.90
2018-06-07T12:59:45.666Z,29.70
2018-06-07T13:02:20.613Z,29.60
2018-06-07T13:04:50.094Z,29.10
2018-06-07T13:07:19.725Z,28.30
2018-06-07T13:09:51.684Z,27.50
2018-06-07T13:12:22.702Z,27.10
2018-06-07T13:14:52.903Z,27.40
2018-06-07T13:17:27.184Z,27.60
2018-06-07T13:19:58.136Z,27.80
2018-06-07T13:22:30.550Z,27.70
2018-06-07T13:25:02.050Z,27.80
2018-06-07T13:27:31.590Z,27.70
2018-06-07T13:30:01.989Z,27.50
2018-06-07T13:32:31.548Z,27.50
2018-06-07T13:35:00.906Z,27.70
2018-06-07T13:37:30.341Z,27.80
2018-06-07T13:39:59.914Z,28.10
2018-06-07T13:42:29.392Z,28.00
2018-06-07T13:44:58.873Z,27.80
2018-06-07T13:47:28.221Z,27.80
2018-06-07T13:49:58.135Z,27.80
2018-06-07T13:52:27.600Z,28.10
2018-06-07T13:54:57.146Z,28.00
2018-06-07T13:57:26.538Z,28.10
2018-06-07T13:59:56.031Z,28.10
2018-06-07T14:02:25.632Z,27.90
2018-06-07T14:04:55.034Z,27.70
2018-06-07T14:07:24.411Z,27.40
2018-06-07T14:09:54.190Z,27.30
2018-06-07T14:12:24.002Z,27.20
2018-06-07T14:14:53.578Z,27.20
2018-06-07T14:17:23.235Z,27.20
2018-06-07T14:19:52.648Z,27.30
2018-06-07T14:22:22.106Z,27.50
2018-06-07T14:24:51.756Z,27.40
2018-06-07T14:27:21.298Z,27.40
2018-06-07T14:29:50.986Z,27.50
2018-06-07T14:32:20.452Z,27.50
2018-06-07T14:34:49.837Z,27.50
2018-06-07T14:37:19.684Z,27.40
2018-06-07T14:39:49.310Z,27.20
2018-06-07T14:42:18.901Z,27.00
2018-06-07T14:44:49.446Z,26.90
2018-06-07T14:47:19.604Z,26.70
2018-06-07T14:49:49.510Z,26.70
2018-06-07T14:52:19.050Z,26.60
2018-06-07T14:54:48.661Z,26.40
2018-06-07T14:57:18.412Z,26.00
2018-06-07T14:59:48.091Z,25.90
2018-06-07T15:02:17.905Z,25.30
2018-06-07T15:04:48.231Z,24.40
2018-06-07T15:07:18.477Z,23.20
2018-06-07T15:09:48.636Z,21.70
2018-06-07T15:12:18.036Z,20.80
2018-06-07T15:14:47.475Z,19.90
2018-06-07T15:17:16.795Z,19.50
2018-06-07T15:19:46.587Z,19.20
2018-06-07T15:22:16.083Z,18.80
2018-06-07T15:24:45.557Z,18.50
2018-06-07T15:27:14.895Z,18.20
2018-06-07T15:29:44.381Z,18.00
2018-06-07T15:32:14.971Z,17.90
2018-06-07T15:34:45.123Z,17.80
2018-06-07T15:37:14.531Z,17.80
2018-06-07T15:39:44.420Z,17.80
2018-06-07T15:42:14.077Z,17.80
2018-06-07T15:44:43.742Z,17.80
2018-06-07T15:47:13.090Z,17.80
2018-06-07T15:49:42.511Z,17.80
2018-06-07T15:52:11.896Z,17.90
2018-06-07T15:54:41.763Z,17.90
2018-06-07T15:57:11.610Z,17.90
2018-06-07T15:59:41.043Z,17.90
2018-06-07T16:02:10.760Z,17.80
2018-06-07T16:04:40.204Z,17.80
2018-06-07T16:07:09.654Z,17.80
2018-06-07T16:09:38.979Z,17.70
2018-06-07T16:12:08.660Z,17.60
2018-06-07T16:14:38.020Z,17.60
2018-06-07T16:17:07.679Z,17.60
2018-06-07T16:19:37.068Z,17.60
2018-06-07T16:22:06.706Z,17.60
2018-06-07T16:24:36.319Z,17.60
2018-06-07T16:27:06.303Z,17.50
2018-06-07T16:29:35.833Z,17.50
2018-06-07T16:32:05.433Z,17.40
2018-06-07T16:34:39.015Z,17.40
2018-06-07T16:37:18.741Z,17.40
2018-06-07T16:39:50.845Z,17.40
2018-06-07T16:42:21.877Z,17.40
2018-06-07T16:44:51.363Z,17.40
2018-06-07T16:47:20.884Z,17.30
2018-06-07T16:49:50.245Z,17.30
2018-06-07T16:52:20.346Z,17.30
2018-06-07T16:54:49.717Z,17.20
2018-06-07T16:57:19.353Z,17.20
2018-06-07T16:59:49.038Z,17.30
2018-06-07T17:02:18.385Z,17.20
2018-06-07T17:04:47.787Z,17.30
2018-06-07T17:07:17.142Z,17.20
2018-06-07T17:09:46.617Z,17.30
2018-06-07T17:12:16.045Z,17.30
2018-06-07T17:14:45.347Z,17.30
2018-06-07T17:17:14.781Z,17.30
2018-06-07T17:19:44.081Z,17.30
2018-06-07T17:22:13.569Z,17.30
2018-06-07T17:24:42.896Z,17.30
2018-06-07T17:27:12.347Z,17.30
2018-06-07T17:29:41.892Z,17.20
2018-06-07T17:32:11.525Z,17.10
2018-06-07T17:34:41.149Z,17.10
2018-06-07T17:37:10.473Z,17.10
2018-06-07T17:39:39.732Z,17.10
2018-06-07T17:42:09.256Z,17.10
2018-06-07T17:44:38.657Z,17.10
2018-06-07T17:47:08.036Z,17.10
2018-06-07T17:49:37.386Z,17.10
2018-06-07T17:52:06.992Z,17.10
2018-06-07T17:54:36.660Z,17.20
2018-06-07T17:57:06.185Z,17.30
2018-06-07T17:59:36.564Z,17.40
2018-06-07T18:02:06.025Z,17.50
2018-06-07T18:04:35.512Z,17.50
2018-06-07T18:07:05.098Z,17.70
2018-06-07T18:09:34.534Z,17.70
2018-06-07T18:12:04.076Z,17.90
2018-06-07T18:14:33.659Z,18.00
2018-06-07T18:17:03.102Z,18.10
2018-06-07T18:19:32.485Z,18.10
2018-06-07T18:22:01.963Z,18.10
2018-06-07T18:24:31.559Z,18.10
2018-06-07T18:27:01.025Z,18.00
2018-06-07T18:29:30.634Z,18.00
2018-06-07T18:31:59.973Z,18.00
2018-06-07T18:34:29.293Z,18.10
2018-06-07T18:36:58.581Z,18.00
2018-06-07T18:39:28.009Z,17.90
2018-06-07T18:41:57.407Z,17.80
2018-06-07T18:44:26.790Z,17.80
2018-06-07T18:46:56.236Z,17.70
2018-06-07T18:49:25.758Z,17.60
2018-06-07T18:51:55.349Z,17.50
2018-06-07T18:54:24.896Z,17.50
2018-06-07T18:56:54.427Z,17.40
2018-06-07T18:59:24.014Z,17.30
2018-06-07T19:01:53.479Z,17.20
2018-06-07T19:04:22.912Z,17.20
2018-06-07T19:06:52.423Z,17.10
2018-06-07T19:09:27.591Z,17.00
2018-06-07T19:11:57.158Z,17.00
2018-06-07T19:14:32.812Z,16.90
2018-06-07T19:17:02.282Z,16.90
2018-06-07T19:19:37.225Z,16.80
2018-06-07T19:22:06.569Z,16.70
2018-06-07T19:24:36.151Z,16.50
2018-06-07T19:27:17.808Z,16.50
2018-06-07T19:29:47.201Z,16.50
2018-06-07T19:32:22.185Z,16.50
2018-06-07T19:34:56.894Z,16.50
2018-06-07T19:37:26.459Z,16.50
2018-06-07T19:40:01.206Z,16.60
2018-06-07T19:42:30.710Z,16.50
2018-06-07T19:45:00.035Z,16.40
2018-06-07T19:47:29.493Z,16.50
2018-06-07T19:49:58.922Z,16.50
2018-06-07T19:52:28.235Z,16.40
2018-06-07T19:54:57.623Z,16.40
2018-06-07T19:57:26.904Z,16.30
2018-06-07T19:59:56.481Z,16.30
2018-06-07T20:02:29.569Z,16.20
2018-06-07T20:05:01.515Z,16.20
2018-06-07T20:07:31.577Z,16.10
2018-06-07T20:10:01.210Z,16.10
2018-06-07T20:12:30.564Z,16.00
2018-06-07T20:15:00.112Z,16.10
2018-06-07T20:17:31.038Z,16.10
2018-06-07T20:20:03.456Z,16.00
2018-06-07T20:22:33.734Z,16.00
2018-06-07T20:25:03.121Z,16.00
2018-06-07T20:27:35.125Z,16.00
2018-06-07T20:30:04.664Z,16.00
2018-06-07T20:32:34.086Z,16.00
2018-06-07T20:35:03.531Z,16.00
2018-06-07T20:37:36.385Z,16.10
2018-06-07T20:40:09.246Z,16.10
2018-06-07T20:42:40.753Z,16.10
2018-06-07T20:45:11.609Z,16.10
2018-06-07T20:47:41.793Z,16.10
2018-06-07T20:50:14.234Z,16.10
2018-06-07T20:52:45.355Z,16.10
2018-06-07T20:55:16.634Z,16.10
2018-06-07T20:57:46.112Z,16.10
2018-06-07T21:00:15.448Z,16.10
2018-06-07T21:02:45.132Z,16.00
2018-06-07T21:05:14.739Z,16.10
2018-06-07T21:07:44.085Z,16.10
2018-06-07T21:10:13.425Z,16.00
2018-06-07T21:12:43.073Z,16.10
2018-06-07T21:15:13.730Z,16.00
2018-06-07T21:17:47.137Z,16.10
2018-06-07T21:20:18.147Z,16.00
2018-06-07T21:22:50.303Z,16.10
2018-06-07T21:25:19.660Z,16.10
2018-06-07T21:27:50.961Z,16.10
2018-06-07T21:30:21.945Z,16.10
2018-06-07T21:32:52.122Z,16.10
2018-06-07T21:35:22.725Z,16.10
2018-06-07T21:37:55.096Z,16.10
2018-06-07T21:40:25.592Z,16.10
2018-06-07T21:42:57.532Z,16.10
2018-06-07T21:45:27.097Z,16.20
2018-06-07T21:47:57.214Z,16.10
2018-06-07T21:50:26.841Z,16.20
2018-06-07T21:52:56.299Z,16.20
2018-06-07T21:55:25.634Z,16.20
2018-06-07T21:57:55.111Z,16.10
2018-06-07T22:00:24.527Z,16.10
2018-06-07T22:02:53.929Z,16.00
2018-06-07T22:05:23.330Z,16.10
2018-06-07T22:07:52.642Z,16.00
2018-06-07T22:10:21.873Z,16.00
2018-06-07T22:12:51.101Z,16.00
2018-06-07T22:15:20.494Z,16.00
2018-06-07T22:17:49.885Z,16.00
2018-06-07T22:20:19.367Z,16.00
2018-06-07T22:22:48.777Z,15.90
2018-06-07T22:25:18.043Z,15.90
2018-06-07T22:27:47.312Z,15.80
2018-06-07T22:30:16.602Z,15.80
2018-06-07T22:32:45.921Z,15.80
2018-06-07T22:35:15.140Z,15.80
2018-06-07T22:37:44.397Z,15.70
2018-06-07T22:40:13.635Z,15.70
2018-06-07T22:42:42.945Z,15.70
2018-06-07T22:45:12.404Z,15.70
2018-06-07T22:47:41.728Z,15.60
2018-06-07T22:50:11.077Z,15.60
2018-06-07T22:52:40.597Z,15.50
2018-06-07T22:55:09.964Z,15.50
2018-06-07T22:57:39.265Z,15.40
2018-06-07T23:00:08.702Z,15.40
2018-06-07T23:02:42.222Z,15.30
2018-06-07T23:07:40.581Z,15.30
2018-06-07T23:10:09.997Z,15.20
2018-06-07T23:12:39.298Z,15.20
2018-06-07T23:15:08.557Z,15.20
2018-06-07T23:17:37.872Z,15.20
2018-06-07T23:20:07.147Z,15.30
2018-06-07T23:22:36.500Z,15.30
2018-06-07T23:25:05.812Z,15.30
2018-06-07T23:27:35.085Z,15.20
2018-06-07T23:30:04.492Z,15.30
2018-06-07T23:32:33.825Z,15.40
2018-06-07T23:35:03.171Z,15.30
2018-06-07T23:37:32.514Z,15.40
2018-06-07T23:40:01.839Z,15.30
2018-06-07T23:42:31.237Z,15.40
2018-06-07T23:45:00.607Z,15.40
2018-06-07T23:47:30.121Z,15.40
2018-06-07T23:49:59.458Z,15.40
2018-06-07T23:52:28.790Z,15.40
2018-06-07T23:54:58.136Z,15.40
2018-06-07T23:57:27.511Z,15.30
2018-06-07T23:59:56.835Z,15.30
